Time,TemperatureF,DewpointF,PressureIn,WindDirection,WindDirectionDegrees,WindSpeedMPH,WindSpeedGustMPH,Humidity,HourlyPrecipIn,Conditions,Clouds,dailyrainin,SolarRadiationWatts/m^2,SoftwareType,DateUTC
2013-02-23 00:00:00,47.9,47.4,30.06,WNW,290,1.2,0.0,98,0.01,BKN,SKC,0.46,0.0,WeatherDisplay:10.37,2013-02-23 05:00:00,
2013-02-23 00:05:00,47.8,47.3,30.06,WNW,289,0.0,0.0,98,0.01,-RA,SKC,0.00,0.0,WeatherDisplay:10.37,2013-02-23 05:05:00,
2013-02-23 00:10:00,47.9,47.4,30.05,WNW,292,3.5,3.5,98,0.01,-RA,SKC,0.01,0.0,WeatherDisplay:10.37,2013-02-23 05:10:00,
2013-02-23 00:15:00,47.8,47.3,30.05,NNW,333,3.5,3.5,98,0.02,-RA,SKC,0.01,0.0,WeatherDisplay:10.37,2013-02-23 05:15:00,
2013-02-23 00:20:00,47.9,47.4,30.04,NW,325,1.2,1.2,98,0.02,-RA,SKC,0.01,0.0,WeatherDisplay:10.37,2013-02-23 05:20:00,
2013-02-23 00:25:00,48.0,47.5,30.04,North,350,2.3,2.3,98,0.02,-RA,SKC,0.01,0.0,WeatherDisplay:10.37,2013-02-23 05:25:00,
2013-02-23 00:30:00,47.9,47.4,30.04,NE,44,1.2,1.2,98,0.02,-RA,SKC,0.01,0.0,WeatherDisplay:10.37,2013-02-23 05:30:00,
2013-02-23 00:35:00,47.9,47.4,30.04,NW,325,2.3,2.3,98,0.02,-RA,SKC,0.01,0.0,WeatherDisplay:10.37,2013-02-23 05:35:00,
2013-02-23 00:40:00,47.9,47.4,30.04,NNW,336,4.0,4.0,98,0.01,-RA,SKC,0.01,0.0,WeatherDisplay:10.37,2013-02-23 05:40:00,
2013-02-23 00:45:00,47.9,47.4,30.05,NNW,340,1.2,1.2,98,0.02,-RA,SKC,0.02,0.0,WeatherDisplay:10.37,2013-02-23 05:45:00,
2013-02-23 00:50:00,47.8,47.3,30.05,WNW,286,3.5,3.5,98,0.02,-RA,SKC,0.02,0.0,WeatherDisplay:10.37,2013-02-23 05:50:00,
2013-02-23 00:55:00,47.7,47.2,30.04,North,355,3.5,3.5,98,0.02,-RA,SKC,0.02,0.0,WeatherDisplay:10.37,2013-02-23 05:55:00,
2013-02-23 01:00:00,47.6,47.1,30.05,NW,318,1.2,1.2,98,0.02,-RA,SKC,0.02,0.0,WeatherDisplay:10.37,2013-02-23 06:00:00,
2013-02-23 01:05:00,47.5,47.0,30.04,North,5,3.5,3.5,98,0.02,-RA,SKC,0.02,0.0,WeatherDisplay:10.37,2013-02-23 06:05:00,
2013-02-23 01:10:00,47.4,46.9,30.04,NNW,339,3.5,3.5,98,0.02,-RA,SKC,0.02,0.0,WeatherDisplay:10.37,2013-02-23 06:10:00,
2013-02-23 01:15:00,47.3,46.8,30.04,NNE,19,2.3,2.3,98,0.02,-RA,SKC,0.03,0.0,WeatherDisplay:10.37,2013-02-23 06:15:00,
2013-02-23 01:21:00,47.2,46.7,30.04,West,281,3.5,3.5,98,0.02,-RA,SKC,0.03,0.0,WeatherDisplay:10.37,2013-02-23 06:21:00,
2013-02-23 01:26:00,47.0,46.5,30.04,NNW,340,5.8,5.8,98,0.02,-RA,SKC,0.03,0.0,WeatherDisplay:10.37,2013-02-23 06:26:00,
2013-02-23 01:31:00,46.9,46.4,30.04,NNW,337,4.6,4.6,98,0.02,-RA,SKC,0.03,0.0,WeatherDisplay:10.37,2013-02-23 06:31:00,
2013-02-23 01:36:00,46.9,46.4,30.04,WNW,287,3.5,3.5,98,0.02,-RA,SKC,0.03,0.0,WeatherDisplay:10.37,2013-02-23 06:36:00,
2013-02-23 01:41:00,46.9,46.4,30.04,NNE,13,4.6,4.6,98,0.02,-RA,SKC,0.03,0.0,WeatherDisplay:10.37,2013-02-23 06:41:00,
2013-02-23 01:46:00,46.8,46.3,30.04,WNW,290,4.6,4.6,98,0.02,-RA,SKC,0.04,0.0,WeatherDisplay:10.37,2013-02-23 06:46:00,
2013-02-23 01:51:00,46.6,46.1,30.04,West,281,3.5,3.5,98,0.02,-RA,SKC,0.04,0.0,WeatherDisplay:10.37,2013-02-23 06:51:00,
2013-02-23 01:56:00,46.5,46.0,30.04,NW,308,3.5,3.5,98,0.02,-RA,SKC,0.04,0.0,WeatherDisplay:10.37,2013-02-23 06:56:00,
2013-02-23 02:01:00,46.4,45.9,30.04,West,263,4.6,4.6,98,0.02,-RA,SKC,0.04,0.0,WeatherDisplay:10.37,2013-02-23 07:01:00,
2013-02-23 02:06:00,46.2,45.7,30.03,NW,312,4.6,4.6,98,0.02,-RA,SKC,0.04,0.0,WeatherDisplay:10.37,2013-02-23 07:06:00,
2013-02-23 02:11:00,46.1,45.6,30.03,NNW,345,4.6,4.6,98,0.02,-RA,SKC,0.04,0.0,WeatherDisplay:10.37,2013-02-23 07:11:00,
2013-02-23 02:16:00,45.9,45.4,30.02,West,259,3.5,3.5,98,0.02,-RA,SKC,0.05,0.0,WeatherDisplay:10.37,2013-02-23 07:16:00,
2013-02-23 02:21:00,45.8,45.3,30.02,NW,306,3.5,3.5,98,0.02,-RA,SKC,0.05,0.0,WeatherDisplay:10.37,2013-02-23 07:21:00,
2013-02-23 02:26:00,45.7,45.2,30.02,North,355,3.5,3.5,98,0.02,-RA,SKC,0.05,0.0,WeatherDisplay:10.37,2013-02-23 07:26:00,
2013-02-23 02:31:00,45.6,45.1,30.01,NW,311,1.2,1.2,98,0.02,-RA,SKC,0.05,0.0,WeatherDisplay:10.37,2013-02-23 07:31:00,
2013-02-23 02:36:00,45.7,45.2,30.01,NW,311,1.2,1.2,98,0.02,-RA,SKC,0.05,0.0,WeatherDisplay:10.37,2013-02-23 07:36:00,
2013-02-23 02:41:00,45.7,45.2,30.01,NW,324,0.0,0.0,98,0.03,-RA,SKC,0.06,0.0,WeatherDisplay:10.37,2013-02-23 07:41:00,
2013-02-23 02:46:00,45.8,45.3,30.00,NNW,338,1.2,1.2,98,0.02,-RA,SKC,0.06,0.0,WeatherDisplay:10.37,2013-02-23 07:46:00,
2013-02-23 02:51:00,45.7,45.2,29.99,NNW,338,2.0,2.0,98,0.02,-RA,SKC,0.06,0.0,WeatherDisplay:10.37,2013-02-23 07:51:00,
2013-02-23 02:56:00,45.7,45.2,29.99,NNW,333,2.3,2.3,98,0.02,-RA,SKC,0.06,0.0,WeatherDisplay:10.37,2013-02-23 07:56:00,
2013-02-23 03:01:00,45.7,45.2,29.98,NNW,333,1.2,1.2,98,0.02,-RA,SKC,0.06,0.0,WeatherDisplay:10.37,2013-02-23 08:01:00,
2013-02-23 03:06:00,45.6,45.1,29.98,NW,304,3.5,3.5,98,0.03,-RA,SKC,0.07,0.0,WeatherDisplay:10.37,2013-02-23 08:06:00,
2013-02-23 03:11:00,45.7,45.2,29.98,WNW,288,2.3,2.3,98,0.03,-RA,SKC,0.07,0.0,WeatherDisplay:10.37,2013-02-23 08:11:00,
2013-02-23 03:16:00,45.8,45.3,29.97,NW,314,2.3,2.3,98,0.02,-RA,SKC,0.07,0.0,WeatherDisplay:10.37,2013-02-23 08:16:00,
2013-02-23 03:21:00,45.7,45.2,29.97,NNW,337,0.0,0.0,98,0.02,-RA,SKC,0.07,0.0,WeatherDisplay:10.37,2013-02-23 08:21:00,
2013-02-23 03:26:00,45.8,45.3,29.97,NNW,335,2.3,2.3,98,0.03,-RA,SKC,0.08,0.0,WeatherDisplay:10.37,2013-02-23 08:26:00,
2013-02-23 03:31:00,45.8,45.3,29.97,NNW,336,0.0,0.0,98,0.03,-RA,SKC,0.08,0.0,WeatherDisplay:10.37,2013-02-23 08:31:00,
2013-02-23 03:36:00,45.8,45.3,29.96,NNW,336,0.0,0.0,98,0.03,-RA,SKC,0.08,0.0,WeatherDisplay:10.37,2013-02-23 08:36:00,
2013-02-23 03:42:00,45.9,45.4,29.97,NNW,336,0.0,0.0,98,0.02,-RA,SKC,0.08,0.0,WeatherDisplay:10.37,2013-02-23 08:42:00,
2013-02-23 03:47:00,45.9,45.4,29.96,East,90,2.3,2.3,98,0.03,-RA,SKC,0.09,0.0,WeatherDisplay:10.37,2013-02-23 08:47:00,
2013-02-23 03:52:00,46.0,45.5,29.96,East,90,0.0,0.0,98,0.03,-RA,SKC,0.09,0.0,WeatherDisplay:10.37,2013-02-23 08:52:00,
2013-02-23 03:57:00,46.0,45.5,29.97,East,90,1.2,1.2,98,0.03,-RA,SKC,0.09,0.0,WeatherDisplay:10.37,2013-02-23 08:57:00,
2013-02-23 04:02:00,46.1,45.6,29.97,East,90,0.0,0.0,98,0.04,-RA,SKC,0.10,0.0,WeatherDisplay:10.37,2013-02-23 09:02:00,
2013-02-23 04:07:00,46.1,45.6,29.97,NE,42,1.2,1.2,98,0.03,-RA,SKC,0.10,0.0,WeatherDisplay:10.37,2013-02-23 09:07:00,
2013-02-23 04:12:00,46.2,45.7,29.97,NE,42,1.2,1.2,98,0.03,-RA,SKC,0.10,0.0,WeatherDisplay:10.37,2013-02-23 09:12:00,
2013-02-23 04:17:00,46.2,45.7,29.97,NNW,331,3.5,3.5,98,0.04,-RA,SKC,0.11,0.0,WeatherDisplay:10.37,2013-02-23 09:17:00,
2013-02-23 04:22:00,46.1,45.6,29.97,East,83,2.3,2.3,98,0.04,-RA,SKC,0.11,0.0,WeatherDisplay:10.37,2013-02-23 09:22:00,
2013-02-23 04:27:00,46.1,45.6,29.96,NNW,331,0.0,0.0,98,0.03,-RA,SKC,0.11,0.0,WeatherDisplay:10.37,2013-02-23 09:27:00,
2013-02-23 04:32:00,46.0,45.5,29.95,ESE,103,2.3,2.3,98,0.04,-RA,SKC,0.12,0.0,WeatherDisplay:10.37,2013-02-23 09:32:00,
2013-02-23 04:37:00,45.8,45.3,29.96,NNW,339,3.5,3.5,98,0.04,-RA,SKC,0.12,0.0,WeatherDisplay:10.37,2013-02-23 09:37:00,
2013-02-23 04:42:00,45.8,45.3,29.96,NNW,340,0.0,0.0,98,0.04,-RA,SKC,0.12,0.0,WeatherDisplay:10.37,2013-02-23 09:42:00,
2013-02-23 04:47:00,45.8,45.3,29.96,NNW,346,0.0,0.0,98,0.04,-RA,SKC,0.13,0.0,WeatherDisplay:10.37,2013-02-23 09:47:00,
2013-02-23 04:52:00,45.8,45.3,29.96,ESE,103,1.2,1.2,98,0.04,-RA,SKC,0.13,0.0,WeatherDisplay:10.37,2013-02-23 09:52:00,
2013-02-23 04:57:00,45.8,45.3,29.96,East,90,1.2,0.0,98,0.05,-RA,SKC,0.14,0.0,WeatherDisplay:10.37,2013-02-23 09:57:00,
2013-02-23 05:02:00,45.8,45.3,29.97,West,281,3.5,3.5,98,0.04,-RA,SKC,0.14,0.0,WeatherDisplay:10.37,2013-02-23 10:02:00,
2013-02-23 05:07:00,45.7,45.2,29.97,NNW,327,2.3,2.3,98,0.04,-RA,SKC,0.14,0.0,WeatherDisplay:10.37,2013-02-23 10:07:00,
2013-02-23 05:12:00,45.7,45.2,29.97,ESE,105,2.3,2.3,98,0.05,-RA,SKC,0.15,0.0,WeatherDisplay:10.37,2013-02-23 10:12:00,
2013-02-23 05:17:00,45.6,45.1,29.97,WNW,298,2.3,2.3,98,0.04,-RA,SKC,0.15,0.0,WeatherDisplay:10.37,2013-02-23 10:17:00,
2013-02-23 05:22:00,45.6,45.1,29.96,NNE,31,3.5,3.5,98,0.05,-RA,SKC,0.16,0.0,WeatherDisplay:10.37,2013-02-23 10:22:00,
2013-02-23 05:27:00,45.5,45.0,29.97,NNW,340,3.5,3.5,98,0.05,-RA,SKC,0.16,0.0,WeatherDisplay:10.37,2013-02-23 10:27:00,
2013-02-23 05:32:00,45.6,45.1,29.96,East,98,2.3,2.3,98,0.04,-RA,SKC,0.16,0.0,WeatherDisplay:10.37,2013-02-23 10:32:00,
2013-02-23 05:37:00,45.4,44.9,29.95,East,93,3.0,3.0,98,0.05,-RA,SKC,0.17,0.0,WeatherDisplay:10.37,2013-02-23 10:37:00,
2013-02-23 05:42:00,45.3,44.8,29.96,SE,128,3.5,3.5,98,0.05,-RA,SKC,0.17,0.0,WeatherDisplay:10.37,2013-02-23 10:42:00,
2013-02-23 05:47:00,45.2,44.7,29.96,NW,323,2.3,2.3,98,0.05,-RA,SKC,0.18,0.0,WeatherDisplay:10.37,2013-02-23 10:47:00,
2013-02-23 05:52:00,45.2,44.7,29.97,WSW,238,1.2,1.2,98,0.05,-RA,SKC,0.18,0.0,WeatherDisplay:10.37,2013-02-23 10:52:00,
2013-02-23 05:57:00,45.2,44.7,29.97,ENE,71,2.0,2.0,98,0.04,-RA,SKC,0.18,0.0,WeatherDisplay:10.37,2013-02-23 10:57:00,
2013-02-23 06:02:00,45.2,44.7,29.96,ESE,104,2.3,2.3,98,0.04,-RA,SKC,0.18,0.0,WeatherDisplay:10.37,2013-02-23 11:02:00,
2013-02-23 06:07:00,45.2,44.7,29.97,West,270,1.2,1.2,98,0.04,-RA,SKC,0.19,0.0,WeatherDisplay:10.37,2013-02-23 11:07:00,
2013-02-23 06:12:00,45.2,44.7,29.96,ENE,62,2.3,2.3,98,0.04,-RA,SKC,0.19,0.0,WeatherDisplay:10.37,2013-02-23 11:12:00,
2013-02-23 06:17:00,45.2,44.7,29.97,SSE,154,2.3,2.3,98,0.05,-RA,SKC,0.20,0.0,WeatherDisplay:10.37,2013-02-23 11:17:00,
2013-02-23 06:22:00,45.2,44.7,29.95,East,98,3.5,3.5,98,0.04,-RA,SKC,0.20,0.0,WeatherDisplay:10.37,2013-02-23 11:22:00,
2013-02-23 06:27:00,45.2,44.7,29.95,East,96,3.5,3.5,98,0.05,-RA,SKC,0.21,0.0,WeatherDisplay:10.37,2013-02-23 11:27:00,
2013-02-23 06:32:00,45.2,44.7,29.95,East,96,2.3,2.3,98,0.05,-RA,SKC,0.21,0.0,WeatherDisplay:10.37,2013-02-23 11:32:00,
2013-02-23 06:37:00,45.4,44.9,29.95,NNW,342,1.2,1.2,98,0.05,-RA,SKC,0.22,0.0,WeatherDisplay:10.37,2013-02-23 11:37:00,
2013-02-23 06:42:00,45.4,44.9,29.95,ESE,103,2.3,2.3,98,0.06,-RA,SKC,0.23,0.0,WeatherDisplay:10.37,2013-02-23 11:42:00,
2013-02-23 06:47:00,45.4,44.9,29.95,ESE,104,1.2,1.2,98,0.05,-RA,SKC,0.23,0.0,WeatherDisplay:10.37,2013-02-23 11:47:00,
2013-02-23 06:52:00,45.5,45.0,29.95,ESE,104,0.0,0.0,98,0.06,-RA,SKC,0.24,0.0,WeatherDisplay:10.37,2013-02-23 11:52:00,
2013-02-23 06:57:00,45.6,45.1,29.95,NNW,333,3.5,3.5,98,0.06,-RA,SKC,0.24,0.0,WeatherDisplay:10.37,2013-02-23 11:57:00,
2013-02-23 07:02:00,45.7,45.2,29.95,SSE,148,2.3,2.3,98,0.07,RA,SKC,0.25,0.0,WeatherDisplay:10.37,2013-02-23 12:02:00,
2013-02-23 07:07:00,45.9,45.4,29.93,NE,46,3.5,3.5,98,0.07,RA,SKC,0.25,0.0,WeatherDisplay:10.37,2013-02-23 12:07:00,
2013-02-23 07:12:00,45.9,45.4,29.94,North,5,1.2,1.2,98,0.06,OVC,SKC,0.25,0.0,WeatherDisplay:10.37,2013-02-23 12:12:00,
2013-02-23 07:17:00,46.0,45.5,29.94,SE,144,1.2,0.0,98,0.06,RA,SKC,0.26,0.0,WeatherDisplay:10.37,2013-02-23 12:17:00,
2013-02-23 07:22:00,46.1,45.6,29.94,East,89,3.5,3.5,98,0.06,RA,SKC,0.26,0.0,WeatherDisplay:10.37,2013-02-23 12:22:00,
2013-02-23 07:27:00,46.1,45.6,29.95,ESE,117,1.2,0.0,98,0.06,RA,SKC,0.27,7.0,WeatherDisplay:10.37,2013-02-23 12:27:00,
2013-02-23 07:32:00,46.3,45.8,29.97,West,279,4.6,4.6,98,0.06,RA,SKC,0.27,0.0,WeatherDisplay:10.37,2013-02-23 12:32:00,
2013-02-23 07:37:00,46.3,45.8,29.96,West,267,3.5,3.5,98,0.06,RA,SKC,0.28,7.0,WeatherDisplay:10.37,2013-02-23 12:37:00,
2013-02-23 07:42:00,46.4,45.9,29.94,East,94,4.6,4.6,98,0.05,RA,SKC,0.29,16.0,WeatherDisplay:10.37,2013-02-23 12:42:00,
2013-02-23 07:47:00,46.5,46.0,29.94,East,93,3.5,3.5,98,0.06,RA,SKC,0.29,19.0,WeatherDisplay:10.37,2013-02-23 12:47:00,
2013-02-23 07:52:00,46.6,46.1,29.94,East,93,3.5,3.5,98,0.06,RA,SKC,0.30,23.0,WeatherDisplay:10.37,2013-02-23 12:52:00,
2013-02-23 07:57:00,46.7,46.2,29.93,East,97,3.5,3.5,98,0.06,RA,SKC,0.30,23.0,WeatherDisplay:10.37,2013-02-23 12:57:00,
2013-02-23 08:02:00,46.7,46.2,29.94,East,101,3.5,3.5,98,0.06,-RA,SKC,0.31,25.0,WeatherDisplay:10.37,2013-02-23 13:02:00,
2013-02-23 08:07:00,46.9,46.4,29.95,East,101,1.2,0.0,98,0.06,-RA,SKC,0.31,12.0,WeatherDisplay:10.37,2013-02-23 13:07:00,
2013-02-23 08:12:00,47.0,46.5,29.95,NE,36,3.5,3.5,98,0.07,-RA,SKC,0.32,14.0,WeatherDisplay:10.37,2013-02-23 13:12:00,
2013-02-23 08:17:00,47.1,46.6,29.94,East,90,3.5,3.5,98,0.06,-RA,SKC,0.32,16.0,WeatherDisplay:10.37,2013-02-23 13:17:00,
2013-02-23 08:22:00,47.3,46.8,29.95,ENE,73,3.0,3.0,98,0.06,-RA,SKC,0.32,19.0,WeatherDisplay:10.37,2013-02-23 13:22:00,
2013-02-23 08:27:00,47.5,47.0,29.95,East,94,1.2,1.2,98,0.06,-RA,SKC,0.33,16.0,WeatherDisplay:10.37,2013-02-23 13:27:00,
2013-02-23 08:32:00,47.6,47.1,29.95,NE,49,2.3,2.3,98,0.06,-RA,SKC,0.33,12.0,WeatherDisplay:10.37,2013-02-23 13:32:00,
2013-02-23 08:37:00,47.8,47.3,29.97,NW,325,2.3,2.3,98,0.06,-RA,SKC,0.34,5.0,WeatherDisplay:10.37,2013-02-23 13:37:00,
2013-02-23 08:42:00,47.8,47.3,29.97,NW,325,0.0,0.0,98,0.06,-RA,SKC,0.34,11.0,WeatherDisplay:10.37,2013-02-23 13:42:00,
2013-02-23 08:47:00,47.6,47.1,29.96,East,100,1.2,0.0,98,0.06,-RA,SKC,0.35,19.0,WeatherDisplay:10.37,2013-02-23 13:47:00,
2013-02-23 08:52:00,47.7,47.2,29.96,East,100,1.2,1.2,98,0.05,-RA,SKC,0.35,16.0,WeatherDisplay:10.37,2013-02-23 13:52:00,
2013-02-23 08:57:00,47.8,47.3,29.95,East,100,0.0,0.0,98,0.05,-RA,SKC,0.35,16.0,WeatherDisplay:10.37,2013-02-23 13:57:00,
2013-02-23 09:02:00,47.8,47.3,29.95,East,100,1.2,0.0,98,0.05, +RA,SKC,0.36,16.0,WeatherDisplay:10.37,2013-02-23 14:02:00,
2013-02-23 09:07:00,48.0,47.5,29.95,East,100,2.3,0.0,98,0.05, +RA,SKC,0.36,16.0,WeatherDisplay:10.37,2013-02-23 14:07:00,
2013-02-23 09:12:00,48.2,47.7,29.95,NNE,13,3.5,3.5,98,0.05, +RA,SKC,0.37,19.0,WeatherDisplay:10.37,2013-02-23 14:12:00,
2013-02-23 09:17:00,48.2,47.7,29.97,NW,313,3.5,3.5,98,0.06, +RA,SKC,0.38,14.0,WeatherDisplay:10.37,2013-02-23 14:17:00,
2013-02-23 09:22:00,48.1,47.6,29.99,WNW,284,8.1,8.1,98,0.06, +RA,SKC,0.38,11.0,WeatherDisplay:10.37,2013-02-23 14:22:00,
2013-02-23 09:28:00,47.8,47.3,29.97,NW,313,3.0,3.0,98,0.05, +RA,SKC,0.38,25.0,WeatherDisplay:10.37,2013-02-23 14:28:00,
2013-02-23 09:33:00,47.5,47.0,29.97,WNW,290,1.2,1.2,98,0.05, +RA,SKC,0.38,14.0,WeatherDisplay:10.37,2013-02-23 14:33:00,
2013-02-23 09:38:00,47.5,47.0,29.98,WNW,290,3.5,3.5,98,0.05, +RA,SKC,0.39,9.0,WeatherDisplay:10.37,2013-02-23 14:38:00,
2013-02-23 09:43:00,47.5,47.0,29.97,WNW,293,0.0,0.0,98,0.06, +RA,SKC,0.40,14.0,WeatherDisplay:10.37,2013-02-23 14:43:00,
2013-02-23 09:48:00,47.6,47.1,29.96,WNW,293,2.3,2.3,98,0.05, +RA,SKC,0.40,21.0,WeatherDisplay:10.37,2013-02-23 14:48:00,
2013-02-23 09:53:00,47.8,47.3,29.96,WNW,293,2.3,2.3,98,0.06, +RA,SKC,0.41,18.0,WeatherDisplay:10.37,2013-02-23 14:53:00,
2013-02-23 09:58:00,47.9,47.4,29.97,WNW,293,1.2,1.2,98,0.06, +RA,SKC,0.41,21.0,WeatherDisplay:10.37,2013-02-23 14:58:00,
2013-02-23 10:03:00,47.9,47.4,29.96,WNW,293,0.0,0.0,98,0.06, +RA,SKC,0.42,18.0,WeatherDisplay:10.37,2013-02-23 15:03:00,
2013-02-23 10:08:00,48.1,47.6,29.96,WNW,293,0.0,0.0,98,0.06, +RA,SKC,0.42,16.0,WeatherDisplay:10.37,2013-02-23 15:08:00,
2013-02-23 10:13:00,48.1,47.6,29.96,WNW,293,1.2,1.2,98,0.05, +RA,SKC,0.42,21.0,WeatherDisplay:10.37,2013-02-23 15:13:00,
2013-02-23 10:18:00,48.2,47.7,29.96,WNW,293,1.2,1.2,98,0.05, +RA,SKC,0.43,16.0,WeatherDisplay:10.37,2013-02-23 15:18:00,
2013-02-23 10:23:00,48.3,47.8,29.97,WNW,293,1.2,1.2,98,0.05, +RA,SKC,0.43,12.0,WeatherDisplay:10.37,2013-02-23 15:23:00,
2013-02-23 10:28:00,48.2,47.7,29.96,WNW,293,0.0,0.0,98,0.06, +RA,SKC,0.44,21.0,WeatherDisplay:10.37,2013-02-23 15:28:00,
2013-02-23 10:33:00,48.3,47.8,29.96,WNW,293,0.0,0.0,98,0.06, +RA,SKC,0.44,23.0,WeatherDisplay:10.37,2013-02-23 15:33:00,
2013-02-23 10:38:00,48.5,48.0,29.95,WNW,293,0.0,0.0,98,0.05, +RA,SKC,0.44,28.0,WeatherDisplay:10.37,2013-02-23 15:38:00,
2013-02-23 10:43:00,48.6,48.1,29.95,WNW,293,0.0,0.0,98,0.05, +RA,SKC,0.45,33.0,WeatherDisplay:10.37,2013-02-23 15:43:00,
2013-02-23 10:48:00,48.8,48.3,29.95,WNW,293,2.0,2.0,98,0.05, +RA,SKC,0.45,25.0,WeatherDisplay:10.37,2013-02-23 15:48:00,
2013-02-23 10:53:00,48.9,48.6,29.96,WNW,300,0.0,0.0,99,0.05, +RA,SKC,0.46,32.0,WeatherDisplay:10.37,2013-02-23 15:53:00,
2013-02-23 10:58:00,49.0,48.7,29.95,WNW,300,0.0,0.0,99,0.05, +RA,SKC,0.46,40.0,WeatherDisplay:10.37,2013-02-23 15:58:00,
2013-02-23 11:03:00,49.2,48.7,29.95,WNW,300,0.0,0.0,98,0.04,OVC,SKC,0.46,37.0,WeatherDisplay:10.37,2013-02-23 16:03:00,
2013-02-23 11:08:00,49.4,48.9,29.96,WNW,300,2.3,2.3,98,0.05,RA,SKC,0.47,40.0,WeatherDisplay:10.37,2013-02-23 16:08:00,
2013-02-23 11:13:00,49.4,48.9,29.96,WNW,300,1.2,0.0,98,0.05,RA,SKC,0.47,47.0,WeatherDisplay:10.37,2013-02-23 16:13:00,
2013-02-23 11:18:00,49.2,48.7,29.96,NW,316,2.3,2.3,98,0.05,RA,SKC,0.48,46.0,WeatherDisplay:10.37,2013-02-23 16:18:00,
2013-02-23 11:23:00,49.3,48.8,29.96,NW,315,3.5,3.5,98,0.05,RA,SKC,0.48,32.0,WeatherDisplay:10.37,2013-02-23 16:23:00,
2013-02-23 11:28:00,49.2,48.7,29.96,NW,310,2.3,2.3,98,0.05,RA,SKC,0.49,30.0,WeatherDisplay:10.37,2013-02-23 16:28:00,
2013-02-23 11:33:00,49.1,48.6,29.96,NW,310,0.0,0.0,98,0.06,RA,SKC,0.50,33.0,WeatherDisplay:10.37,2013-02-23 16:33:00,
2013-02-23 11:38:00,49.2,48.7,29.96,NW,310,2.3,2.3,98,0.06,RA,SKC,0.50,16.0,WeatherDisplay:10.37,2013-02-23 16:38:00,
2013-02-23 11:43:00,49.2,48.7,29.97,NW,310,2.0,2.0,98,0.06,RA,SKC,0.51,14.0,WeatherDisplay:10.37,2013-02-23 16:43:00,
2013-02-23 11:48:00,49.3,48.8,29.96,NW,310,1.2,0.0,98,0.06,RA,SKC,0.51,14.0,WeatherDisplay:10.37,2013-02-23 16:48:00,
2013-02-23 11:53:00,49.3,48.8,29.96,NW,311,0.0,0.0,98,0.06,RA,SKC,0.52,18.0,WeatherDisplay:10.37,2013-02-23 16:53:00,
2013-02-23 11:58:00,49.5,49.2,29.96,NW,311,0.0,0.0,99,0.06,RA,SKC,0.52,16.0,WeatherDisplay:10.37,2013-02-23 16:58:00,
2013-02-23 12:03:00,49.6,49.3,29.96,NW,311,0.0,0.0,99,0.06, +RA,SKC,0.53,12.0,WeatherDisplay:10.37,2013-02-23 17:03:00,
2013-02-23 12:08:00,49.7,49.4,29.95,NW,311,0.0,0.0,99,0.06, +RA,SKC,0.53,35.0,WeatherDisplay:10.37,2013-02-23 17:08:00,
2013-02-23 12:13:00,50.0,49.5,29.95,NW,311,0.0,0.0,98,0.06, +RA,SKC,0.53,56.0,WeatherDisplay:10.37,2013-02-23 17:13:00,
2013-02-23 12:18:00,50.3,50.0,29.94,NW,311,1.2,1.2,99,0.06, +RA,SKC,0.54,72.0,WeatherDisplay:10.37,2013-02-23 17:18:00,
2013-02-23 12:23:00,50.5,50.2,29.93,ENE,61,0.0,0.0,99,0.06, +RA,SKC,0.54,65.0,WeatherDisplay:10.37,2013-02-23 17:23:00,
2013-02-23 12:28:00,50.9,50.6,29.93,ENE,61,0.0,0.0,99,0.06, +RA,SKC,0.55,56.0,WeatherDisplay:10.37,2013-02-23 17:28:00,
2013-02-23 12:33:00,51.2,50.9,29.92,ENE,61,0.0,0.0,99,0.05, +RA,SKC,0.55,53.0,WeatherDisplay:10.37,2013-02-23 17:33:00,
2013-02-23 12:38:00,51.4,51.1,29.94,ENE,61,0.0,0.0,99,0.06, +RA,SKC,0.56,58.0,WeatherDisplay:10.37,2013-02-23 17:38:00,
2013-02-23 12:43:00,51.7,51.4,29.93,ENE,61,0.0,0.0,99,0.05, +RA,SKC,0.56,54.0,WeatherDisplay:10.37,2013-02-23 17:43:00,
2013-02-23 12:48:00,51.8,51.5,29.93,ENE,61,0.0,0.0,99,0.06, +RA,SKC,0.57,67.0,WeatherDisplay:10.37,2013-02-23 17:48:00,
2013-02-23 12:53:00,52.1,51.8,29.93,ENE,61,0.0,0.0,99,0.05, +RA,SKC,0.57,104.0,WeatherDisplay:10.37,2013-02-23 17:53:00,
2013-02-23 12:58:00,52.4,52.1,29.93,ENE,61,0.0,0.0,99,0.06, +RA,SKC,0.58,113.0,WeatherDisplay:10.37,2013-02-23 17:58:00,
2013-02-23 13:03:00,52.7,52.4,29.92,ENE,61,0.0,0.0,99,0.06,RA,SKC,0.58,116.0,WeatherDisplay:10.37,2013-02-23 18:03:00,
2013-02-23 13:08:00,53.2,52.9,29.92,ENE,61,0.0,0.0,99,0.05,OVC,SKC,0.59,113.0,WeatherDisplay:10.37,2013-02-23 18:08:00,
2013-02-23 13:13:00,53.4,53.1,29.92,ENE,61,0.0,0.0,99,0.06,RA,SKC,0.59,116.0,WeatherDisplay:10.37,2013-02-23 18:13:00,
2013-02-23 13:18:00,53.9,53.6,29.93,ENE,61,0.0,0.0,99,0.05,RA,SKC,0.59,120.0,WeatherDisplay:10.37,2013-02-23 18:18:00,
2013-02-23 13:23:00,54.2,53.9,29.92,ENE,61,0.0,0.0,99,0.06,RA,SKC,0.60,93.0,WeatherDisplay:10.37,2013-02-23 18:23:00,
2013-02-23 13:28:00,54.5,54.2,29.92,ENE,61,0.0,0.0,99,0.06,RA,SKC,0.61,95.0,WeatherDisplay:10.37,2013-02-23 18:28:00,
2013-02-23 13:33:00,54.9,54.6,29.91,ENE,61,1.2,1.2,99,0.07,RA,SKC,0.62,63.0,WeatherDisplay:10.37,2013-02-23 18:33:00,
2013-02-23 13:38:00,55.2,54.9,29.91,ENE,61,0.0,0.0,99,0.06,RA,SKC,0.62,76.0,WeatherDisplay:10.37,2013-02-23 18:38:00,
2013-02-23 13:43:00,55.9,55.6,29.90,ENE,61,1.2,1.2,99,0.07,RA,SKC,0.63,79.0,WeatherDisplay:10.37,2013-02-23 18:43:00,
2013-02-23 13:48:00,56.7,56.4,29.90,WSW,244,1.2,0.0,99,0.06,RA,SKC,0.63,67.0,WeatherDisplay:10.37,2013-02-23 18:48:00,
2013-02-23 13:53:00,57.3,57.0,29.90,WNW,294,0.0,0.0,99,0.06,OVC,SKC,0.64,69.0,WeatherDisplay:10.37,2013-02-23 18:53:00,
2013-02-23 13:58:00,58.2,57.9,29.90,NW,308,2.3,0.0,99,0.06,RA,SKC,0.64,97.0,WeatherDisplay:10.37,2013-02-23 18:58:00,
2013-02-23 14:03:00,58.9,58.6,29.90,NW,326,2.3,2.3,99,0.06,-RA,SKC,0.64,76.0,WeatherDisplay:10.37,2013-02-23 19:03:00,
2013-02-23 14:08:00,60.0,59.7,29.89,North,349,2.3,0.0,99,0.07,-RA,SKC,0.65,62.0,WeatherDisplay:10.37,2013-02-23 19:08:00,
2013-02-23 14:13:00,60.3,60.0,29.89,North,349,1.0,1.0,99,0.06,-RA,SKC,0.65,62.0,WeatherDisplay:10.37,2013-02-23 19:13:00,
2013-02-23 14:18:00,60.7,60.4,29.87,SE,142,2.3,2.3,99,0.07,-RA,SKC,0.66,44.0,WeatherDisplay:10.37,2013-02-23 19:18:00,
2013-02-23 14:23:00,60.7,60.4,29.87,SE,142,1.2,1.2,99,0.06,-RA,SKC,0.66,63.0,WeatherDisplay:10.37,2013-02-23 19:23:00,
2013-02-23 14:28:00,61.1,60.8,29.86,SSE,151,3.5,3.5,99,0.05,-RA,SKC,0.66,81.0,WeatherDisplay:10.37,2013-02-23 19:28:00,
2013-02-23 14:33:00,61.1,60.8,29.87,West,281,3.5,3.5,99,0.05,-RA,SKC,0.67,67.0,WeatherDisplay:10.37,2013-02-23 19:33:00,
2013-02-23 14:38:00,61.1,60.8,29.87,South,180,1.2,1.2,99,0.05,-RA,SKC,0.67,62.0,WeatherDisplay:10.37,2013-02-23 19:38:00,
2013-02-23 14:43:00,61.3,61.0,29.87,ESE,117,3.0,3.0,99,0.05,-RA,SKC,0.68,88.0,WeatherDisplay:10.37,2013-02-23 19:43:00,
2013-02-23 14:49:00,61.4,61.1,29.87,South,171,2.3,2.3,99,0.05,-RA,SKC,0.68,86.0,WeatherDisplay:10.37,2013-02-23 19:49:00,
2013-02-23 14:54:00,61.5,61.2,29.87,WNW,283,1.2,1.2,99,0.05,-RA,SKC,0.69,67.0,WeatherDisplay:10.37,2013-02-23 19:54:00,
2013-02-23 14:59:00,61.5,61.2,29.85,WNW,283,2.0,2.0,99,0.05,-RA,SKC,0.69,51.0,WeatherDisplay:10.37,2013-02-23 19:59:00,
2013-02-23 15:04:00,61.5,61.2,29.84,East,101,3.5,3.5,99,0.05,-RA,SKC,0.69,51.0,WeatherDisplay:10.37,2013-02-23 20:04:00,
2013-02-23 15:09:00,61.5,61.2,29.81,North,349,2.3,2.3,99,0.05,-RA,SKC,0.70,60.0,WeatherDisplay:10.37,2013-02-23 20:09:00,
2013-02-23 15:14:00,61.6,61.3,29.81,WSW,240,4.6,4.6,99,0.05,-RA,SKC,0.70,72.0,WeatherDisplay:10.37,2013-02-23 20:14:00,
2013-02-23 15:19:00,61.6,61.3,29.82,SW,216,1.2,1.2,99,0.05,-RA,SKC,0.71,91.0,WeatherDisplay:10.37,2013-02-23 20:19:00,
2013-02-23 15:24:00,61.6,61.3,29.81,NW,304,2.3,2.3,99,0.05,-RA,SKC,0.71,86.0,WeatherDisplay:10.37,2013-02-23 20:24:00,
2013-02-23 15:29:00,61.8,61.5,29.83,WNW,284,3.5,3.5,99,0.05,-RA,SKC,0.71,65.0,WeatherDisplay:10.37,2013-02-23 20:29:00,
2013-02-23 15:34:00,61.9,61.6,29.84,NW,314,5.8,5.8,99,0.05,-RA,SKC,0.72,65.0,WeatherDisplay:10.37,2013-02-23 20:34:00,
2013-02-23 15:39:00,62.0,61.7,29.85,SW,224,8.1,8.1,99,0.05,-RA,SKC,0.72,69.0,WeatherDisplay:10.37,2013-02-23 20:39:00,
2013-02-23 15:44:00,62.0,61.7,29.85,SW,227,3.5,3.5,99,0.04,-RA,SKC,0.72,46.0,WeatherDisplay:10.37,2013-02-23 20:44:00,
2013-02-23 15:49:00,62.0,61.7,29.85,WNW,287,4.6,4.6,99,0.05,-RA,SKC,0.73,42.0,WeatherDisplay:10.37,2013-02-23 20:49:00,
2013-02-23 15:54:00,61.9,61.6,29.84,West,269,1.2,1.2,99,0.04,-RA,SKC,0.73,37.0,WeatherDisplay:10.37,2013-02-23 20:54:00,
2013-02-23 15:59:00,61.9,61.6,29.84,West,280,3.5,3.5,99,0.04,-RA,SKC,0.73,33.0,WeatherDisplay:10.37,2013-02-23 20:59:00,
2013-02-23 16:04:00,61.9,61.6,29.85,West,277,3.5,3.5,99,0.05,RA,SKC,0.74,37.0,WeatherDisplay:10.37,2013-02-23 21:04:00,
2013-02-23 16:09:00,61.8,61.5,29.86,West,277,2.3,2.3,99,0.04,RA,SKC,0.74,40.0,WeatherDisplay:10.37,2013-02-23 21:09:00,
2013-02-23 16:14:00,61.8,61.5,29.86,WNW,286,4.6,4.6,99,0.04,OVC,SKC,0.75,46.0,WeatherDisplay:10.37,2013-02-23 21:14:00,
2013-02-23 16:19:00,61.7,61.4,29.85,WNW,287,2.3,2.3,99,0.04,RA,SKC,0.75,30.0,WeatherDisplay:10.37,2013-02-23 21:19:00,
2013-02-23 16:24:00,61.8,61.5,29.85,WSW,247,1.2,0.0,99,0.04,RA,SKC,0.75,25.0,WeatherDisplay:10.37,2013-02-23 21:24:00,
2013-02-23 16:29:00,61.7,61.4,29.85,SE,130,3.5,3.5,99,0.05,RA,SKC,0.76,33.0,WeatherDisplay:10.37,2013-02-23 21:29:00,
2013-02-23 16:34:00,61.7,61.4,29.85,NNW,330,1.0,0.0,99,0.04,RA,SKC,0.76,23.0,WeatherDisplay:10.37,2013-02-23 21:34:00,
2013-02-23 16:39:00,61.6,61.3,29.87,WNW,295,4.6,4.6,99,0.05,RA,SKC,0.77,18.0,WeatherDisplay:10.37,2013-02-23 21:39:00,
2013-02-23 16:44:00,61.5,61.2,29.85,NNW,331,1.2,0.0,99,0.06,RA,SKC,0.78,23.0,WeatherDisplay:10.37,2013-02-23 21:44:00,
2013-02-23 16:49:00,61.4,61.1,29.84,WSW,255,3.0,3.0,99,0.05,RA,SKC,0.78,16.0,WeatherDisplay:10.37,2013-02-23 21:49:00,
2013-02-23 16:54:00,61.4,61.1,29.84,NNW,342,3.5,3.5,99,0.05,OVC,SKC,0.78,14.0,WeatherDisplay:10.37,2013-02-23 21:54:00,
2013-02-23 16:59:00,61.3,61.0,29.85,WNW,283,2.3,2.3,99,0.06,RA,SKC,0.79,5.0,WeatherDisplay:10.37,2013-02-23 21:59:00,
2013-02-23 17:04:00,61.2,60.9,29.85,West,265,1.2,0.0,99,0.05,RA,SKC,0.79,11.0,WeatherDisplay:10.37,2013-02-23 22:04:00,
2013-02-23 17:09:00,61.1,60.8,29.86,WNW,303,3.5,3.5,99,0.05,OVC,SKC,0.79,9.0,WeatherDisplay:10.37,2013-02-23 22:09:00,
2013-02-23 17:14:00,61.0,60.7,29.86,WNW,303,1.2,1.2,99,0.06,RA,SKC,0.80,12.0,WeatherDisplay:10.37,2013-02-23 22:14:00,
2013-02-23 17:19:00,60.9,60.6,29.86,WNW,303,0.0,0.0,99,0.05,RA,SKC,0.80,25.0,WeatherDisplay:10.37,2013-02-23 22:19:00,
2013-02-23 17:24:00,60.9,60.6,29.86,WNW,303,0.0,0.0,99,0.06,RA,SKC,0.81,16.0,WeatherDisplay:10.37,2013-02-23 22:24:00,
2013-02-23 17:29:00,60.8,60.5,29.85,WNW,303,2.3,2.3,99,0.06,RA,SKC,0.82,16.0,WeatherDisplay:10.37,2013-02-23 22:29:00,
2013-02-23 17:34:00,60.0,59.4,29.85,NW,320,1.0,1.0,98,0.06,RA,SKC,0.82,12.0,WeatherDisplay:10.37,2013-02-23 22:34:00,
2013-02-23 17:39:00,59.0,58.4,29.85,NNW,338,2.3,2.3,98,0.05,OVC,SKC,0.82,9.0,WeatherDisplay:10.37,2013-02-23 22:39:00,
2013-02-23 17:44:00,58.5,57.9,29.84,NNW,329,1.2,1.2,98,0.05,RA,SKC,0.83,14.0,WeatherDisplay:10.37,2013-02-23 22:44:00,
2013-02-23 17:49:00,58.2,57.6,29.85,NNW,331,3.5,3.5,98,0.05,RA,SKC,0.83,0.0,WeatherDisplay:10.37,2013-02-23 22:49:00,
2013-02-23 17:54:00,57.4,56.8,29.85,WNW,298,3.5,3.5,98,0.05,OVC,SKC,0.83,0.0,WeatherDisplay:10.37,2013-02-23 22:54:00,
2013-02-23 17:59:00,56.6,56.0,29.84,NNW,327,4.6,4.6,98,0.05,RA,SKC,0.84,0.0,WeatherDisplay:10.37,2013-02-23 22:59:00,
2013-02-23 18:04:00,56.0,55.4,29.84,NNW,346,3.5,3.5,98,0.05,RA,SKC,0.84,0.0,WeatherDisplay:10.37,2013-02-23 23:04:00,
2013-02-23 18:09:00,55.6,55.0,29.85,NW,313,3.5,3.5,98,0.05,OVC,SKC,0.84,0.0,WeatherDisplay:10.37,2013-02-23 23:09:00,
2013-02-23 18:14:00,55.1,54.5,29.86,NW,321,2.3,2.3,98,0.05,RA,SKC,0.85,0.0,WeatherDisplay:10.37,2013-02-23 23:14:00,
2013-02-23 18:19:00,54.9,54.3,29.86,NNE,13,3.5,3.5,98,0.05,RA,SKC,0.85,0.0,WeatherDisplay:10.37,2013-02-23 23:19:00,
2013-02-23 18:24:00,54.7,54.1,29.86,NNW,348,3.5,3.5,98,0.04,OVC,SKC,0.85,0.0,WeatherDisplay:10.37,2013-02-23 23:24:00,
2013-02-23 18:29:00,54.4,53.8,29.86,West,261,3.5,3.5,98,0.04,RA,SKC,0.86,0.0,WeatherDisplay:10.37,2013-02-23 23:29:00,
2013-02-23 18:34:00,54.3,53.7,29.87,WNW,291,2.3,2.3,98,0.04,RA,SKC,0.86,0.0,WeatherDisplay:10.37,2013-02-23 23:34:00,
2013-02-23 18:39:00,54.2,53.6,29.86,NNW,329,1.2,1.2,98,0.05,RA,SKC,0.87,0.0,WeatherDisplay:10.37,2013-02-23 23:39:00,
2013-02-23 18:44:00,54.1,53.5,29.87,NNW,329,2.3,2.3,98,0.05,RA,SKC,0.88,0.0,WeatherDisplay:10.37,2013-02-23 23:44:00,
2013-02-23 18:49:00,54.1,53.5,29.87,NW,325,2.3,2.3,98,0.05,RA,SKC,0.88,0.0,WeatherDisplay:10.37,2013-02-23 23:49:00,
2013-02-23 18:54:00,54.1,53.5,29.88,NW,325,2.3,2.3,98,0.06,RA,SKC,0.89,0.0,WeatherDisplay:10.37,2013-02-23 23:54:00,
2013-02-23 18:59:00,54.1,53.5,29.88,West,266,3.5,3.5,98,0.06,RA,SKC,0.90,0.0,WeatherDisplay:10.37,2013-02-23 23:59:00,
2013-02-23 19:04:00,54.1,53.5,29.88,West,266,3.5,3.5,98,0.06,RA,SKC,0.90,0.0,WeatherDisplay:10.37,2013-02-24 00:04:00,
2013-02-23 19:09:00,54.0,53.4,29.88,West,277,3.5,3.5,98,0.07,RA,SKC,0.91,0.0,WeatherDisplay:10.37,2013-02-24 00:09:00,
2013-02-23 19:14:00,53.9,53.3,29.89,West,277,2.3,2.3,98,0.06,RA,SKC,0.92,0.0,WeatherDisplay:10.37,2013-02-24 00:14:00,
2013-02-23 19:19:00,53.9,53.3,29.89,West,277,3.5,3.5,98,0.07,RA,SKC,0.92,0.0,WeatherDisplay:10.37,2013-02-24 00:19:00,
2013-02-23 19:24:00,53.9,53.3,29.88,West,277,1.2,1.2,98,0.08,RA,SKC,0.93,0.0,WeatherDisplay:10.37,2013-02-24 00:24:00,
2013-02-23 19:29:00,53.9,53.3,29.88,NNW,327,3.5,3.5,98,0.07,RA,SKC,0.93,0.0,WeatherDisplay:10.37,2013-02-24 00:29:00,
2013-02-23 19:34:00,53.8,53.2,29.88,NW,311,3.5,3.5,98,0.08,RA,SKC,0.94,0.0,WeatherDisplay:10.37,2013-02-24 00:34:00,
2013-02-23 19:39:00,53.7,53.1,29.88,WNW,297,3.5,3.5,98,0.07,RA,SKC,0.94,0.0,WeatherDisplay:10.37,2013-02-24 00:39:00,
2013-02-23 19:44:00,53.6,53.0,29.89,WNW,298,3.5,3.5,98,0.07,RA,SKC,0.95,0.0,WeatherDisplay:10.37,2013-02-24 00:44:00,
2013-02-23 19:49:00,53.6,53.0,29.90,NW,310,2.3,2.3,98,0.08,RA,SKC,0.96,0.0,WeatherDisplay:10.37,2013-02-24 00:49:00,
2013-02-23 19:54:00,53.4,52.8,29.90,West,269,2.3,2.3,98,0.07,RA,SKC,0.96,0.0,WeatherDisplay:10.37,2013-02-24 00:54:00,
2013-02-23 19:59:00,53.1,52.6,29.90,West,268,3.5,3.5,98,0.06,OVC,SKC,0.96,0.0,WeatherDisplay:10.37,2013-02-24 00:59:00,
2013-02-23 20:04:00,52.8,52.3,29.90,WNW,292,2.3,2.3,98,0.06,OVC,SKC,0.96,0.0,WeatherDisplay:10.37,2013-02-24 01:04:00,
2013-02-23 20:09:00,52.8,52.3,29.90,West,262,3.5,3.5,98,0.06,RA,SKC,0.97,0.0,WeatherDisplay:10.37,2013-02-24 01:09:00,
2013-02-23 20:14:00,52.7,52.2,29.90,WNW,300,0.0,0.0,98,0.06,RA,SKC,0.97,0.0,WeatherDisplay:10.37,2013-02-24 01:14:00,
2013-02-23 20:19:00,52.8,52.3,29.91,WNW,300,1.0,1.0,98,0.06,RA,SKC,0.98,0.0,WeatherDisplay:10.37,2013-02-24 01:19:00,
2013-02-23 20:24:00,52.7,52.2,29.92,WNW,300,1.2,0.0,98,0.06,RA,SKC,0.99,0.0,WeatherDisplay:10.37,2013-02-24 01:24:00,
2013-02-23 20:29:00,52.8,52.3,29.92,WNW,300,2.3,2.3,98,0.06,RA,SKC,0.99,0.0,WeatherDisplay:10.37,2013-02-24 01:29:00,
2013-02-23 20:34:00,52.8,52.3,29.93,WNW,300,0.0,0.0,98,0.06,RA,SKC,1.00,0.0,WeatherDisplay:10.37,2013-02-24 01:34:00,
2013-02-23 20:39:00,52.6,52.1,29.93,West,278,3.5,3.5,98,0.06,RA,SKC,1.00,0.0,WeatherDisplay:10.37,2013-02-24 01:39:00,
2013-02-23 20:44:00,52.6,52.1,29.94,West,275,3.5,3.5,98,0.06,RA,SKC,1.01,0.0,WeatherDisplay:10.37,2013-02-24 01:44:00,
2013-02-23 20:49:00,52.6,52.1,29.94,West,273,5.8,5.8,98,0.05,RA,SKC,1.01,0.0,WeatherDisplay:10.37,2013-02-24 01:49:00,
2013-02-23 20:55:00,52.5,52.0,29.93,West,274,2.0,5.0,98,0.00,RA,SKC,1.02,0.0,WeatherDisplay:10.37,2013-02-24 01:55:00,
2013-02-23 20:59:00,52.4,51.9,29.93,WSW,251,3.5,3.5,98,0.06,RA,SKC,1.02,0.0,WeatherDisplay:10.37,2013-02-24 01:59:00,
2013-02-23 21:05:00,52.5,52.0,29.93,WSW,251,0.0,0.0,98,0.07,RA,SKC,1.03,0.0,WeatherDisplay:10.37,2013-02-24 02:05:00,
2013-02-23 21:10:00,52.5,52.2,29.93,WSW,251,0.0,0.0,99,0.06,RA,SKC,1.03,0.0,WeatherDisplay:10.37,2013-02-24 02:10:00,
2013-02-23 21:15:00,52.5,52.2,29.93,WSW,251,0.0,0.0,99,0.00,RA,SKC,1.04,0.0,WeatherDisplay:10.37,2013-02-24 02:15:00,
2013-02-23 21:20:00,52.6,52.3,29.93,WSW,251,0.0,0.0,99,0.06,RA,SKC,1.05,0.0,WeatherDisplay:10.37,2013-02-24 02:20:00,
2013-02-23 21:25:00,52.6,52.3,29.94,WSW,251,0.0,0.0,99,0.00,RA,SKC,1.05,0.0,WeatherDisplay:10.37,2013-02-24 02:25:00,
2013-02-23 21:30:00,52.6,52.3,29.93,WSW,251,1.2,1.2,99,0.06,RA,SKC,1.06,0.0,WeatherDisplay:10.37,2013-02-24 02:30:00,
2013-02-23 21:35:00,52.6,52.3,29.93,WSW,251,0.0,1.0,99,0.00,RA,SKC,1.06,0.0,WeatherDisplay:10.37,2013-02-24 02:35:00,
2013-02-23 21:40:00,52.7,52.4,29.93,WSW,251,0.0,0.0,99,0.07,RA,SKC,1.07,0.0,WeatherDisplay:10.37,2013-02-24 02:40:00,
2013-02-23 21:45:00,52.7,52.4,29.93,WSW,251,0.0,0.0,99,0.00,RA,SKC,1.07,0.0,WeatherDisplay:10.37,2013-02-24 02:45:00,
2013-02-23 21:50:00,52.8,52.5,29.94,WSW,251,0.0,0.0,99,0.06,OVC,SKC,1.08,0.0,WeatherDisplay:10.37,2013-02-24 02:50:00,
2013-02-23 21:55:00,52.8,52.3,29.94,WSW,251,0.0,1.0,98,0.00,RA,SKC,1.08,0.0,WeatherDisplay:10.37,2013-02-24 02:55:00,
2013-02-23 21:59:00,52.9,52.4,29.94,WSW,251,0.0,0.0,98,0.07,RA,SKC,1.09,0.0,WeatherDisplay:10.37,2013-02-24 02:59:00,
2013-02-23 22:04:00,53.0,52.5,29.94,WSW,251,1.2,0.0,98,0.06,-RA,SKC,1.09,0.0,WeatherDisplay:10.37,2013-02-24 03:04:00,
2013-02-23 22:09:00,53.1,52.8,29.93,WSW,251,0.0,0.0,99,0.06,-RA,SKC,1.10,0.0,WeatherDisplay:10.37,2013-02-24 03:09:00,
2013-02-23 22:15:00,53.3,53.0,29.93,WSW,251,0.0,0.0,99,0.06,-RA,SKC,1.10,0.0,WeatherDisplay:10.37,2013-02-24 03:15:00,
2013-02-23 22:20:00,53.3,53.0,29.93,WSW,251,1.2,0.0,99,0.07,-RA,SKC,1.11,0.0,WeatherDisplay:10.37,2013-02-24 03:20:00,
2013-02-23 22:25:00,53.4,53.1,29.92,WSW,251,0.0,2.0,99,0.00,-RA,SKC,1.11,0.0,WeatherDisplay:10.37,2013-02-24 03:25:00,
2013-02-23 22:30:00,53.6,53.3,29.90,WSW,251,0.0,0.0,99,0.06,-RA,SKC,1.11,0.0,WeatherDisplay:10.37,2013-02-24 03:30:00,
2013-02-23 22:35:00,53.8,53.5,29.90,WSW,251,0.0,1.0,99,0.00,-RA,SKC,1.12,0.0,WeatherDisplay:10.37,2013-02-24 03:35:00,
2013-02-23 22:40:00,53.8,53.5,29.90,WSW,251,0.0,0.4,99,0.05,-RA,SKC,1.12,0.0,WeatherDisplay:10.37,2013-02-24 03:40:00,
2013-02-23 22:45:00,53.9,53.6,29.90,WSW,251,0.0,0.0,99,0.00,-RA,SKC,1.13,0.0,WeatherDisplay:10.37,2013-02-24 03:45:00,
2013-02-23 22:50:00,54.2,53.9,29.89,WSW,251,1.2,0.0,99,0.06,-RA,SKC,1.13,0.0,WeatherDisplay:10.37,2013-02-24 03:50:00,
2013-02-23 22:55:00,54.4,54.1,29.86,South,191,2.0,5.0,99,0.00,-RA,SKC,1.13,0.0,WeatherDisplay:10.37,2013-02-24 03:55:00,
2013-02-23 23:00:00,54.6,54.3,29.85,ESE,111,3.5,3.5,99,0.04,-RA,SKC,1.13,0.0,WeatherDisplay:10.37,2013-02-24 04:00:00,
2013-02-23 23:05:00,54.8,54.6,29.84,SE,129,2.0,5.0,99,0.00,-RA,SKC,1.14,0.0,WeatherDisplay:10.37,2013-02-24 04:05:00,
2013-02-23 23:10:00,55.1,54.8,29.81,ESE,118,3.0,3.0,99,0.05,-RA,SKC,1.14,0.0,WeatherDisplay:10.37,2013-02-24 04:10:00,
2013-02-23 23:15:00,55.3,55.0,29.78,SE,140,4.6,4.6,99,0.05,-RA,SKC,1.15,0.0,WeatherDisplay:10.37,2013-02-24 04:15:00,
2013-02-23 23:20:00,55.5,55.2,29.80,ESE,102,0.0,0.0,99,0.04,-RA,SKC,1.15,0.0,WeatherDisplay:10.37,2013-02-24 04:20:00,
2013-02-23 23:25:00,55.7,55.4,29.80,SSE,165,1.2,1.2,99,0.04,-RA,SKC,1.16,0.0,WeatherDisplay:10.37,2013-02-24 04:25:00,
2013-02-23 23:30:00,55.9,55.6,29.79,SE,130,0.0,0.0,99,0.05,-RA,SKC,1.16,0.0,WeatherDisplay:10.37,2013-02-24 04:30:00,
2013-02-23 23:35:00,56.1,55.8,29.79,SE,130,1.2,0.0,99,0.04,-RA,SKC,1.16,0.0,WeatherDisplay:10.37,2013-02-24 04:35:00,
2013-02-23 23:40:00,56.0,55.7,29.81,South,169,1.2,1.2,99,0.04,-RA,SKC,1.16,0.0,WeatherDisplay:10.37,2013-02-24 04:40:00,
2013-02-23 23:45:00,56.1,55.8,29.80,SSE,168,0.0,0.0,99,0.03,-RA,SKC,1.16,0.0,WeatherDisplay:10.37,2013-02-24 04:45:00,
2013-02-23 23:50:00,56.0,55.7,29.80,South,169,0.0,0.0,99,0.04,-RA,SKC,1.17,0.0,WeatherDisplay:10.37,2013-02-24 04:50:00,
2013-02-23 23:55:00,56.0,55.7,29.81,South,169,0.0,0.0,99,0.04,-RA,SKC,1.17,0.0,WeatherDisplay:10.37,2013-02-24 04:55:00,